Terminal Aerodrome Forecast
Issued by NWS

Home | Current Version | Previous Version | Graphics & Text | Print | Product List | Glossary On
Versions: 1 2 3 4 5 6 7 8 9 10 11 12
581
FTUS43 KGRB 180520
TAFCWA
TAF
KCWA 180520Z 1806/1906 26010KT P6SM SCT250 WS020/28040KT
     FM181300 25008KT P6SM BKN150
     FM181500 25009KT P6SM BKN120
     FM190000 26004KT P6SM SCT080
      AMD LTD TO CLD VIS AND WIND TIL 181200=

USA.gov is the U.S. government's official web portal to all federal, state and local government web resources and services.